sensor_id;sensor_type;location;lat;lon;timestamp;P1;durP1;ratioP1;P2;durP2;ratioP2
10902;SDS011;5504;47.312;11.060;2023-06-10T00:00:42;7.10;;;6.40;;
10902;SDS011;5504;47.312;11.060;2023-06-10T00:03:09;6.67;;;5.97;;
10902;SDS011;5504;47.312;11.060;2023-06-10T00:05:35;6.90;;;6.30;;
10902;SDS011;5504;47.312;11.060;2023-06-10T00:08:03;7.07;;;6.40;;
10902;SDS011;5504;47.312;11.060;2023-06-10T00:10:32;7.73;;;6.13;;
10902;SDS011;5504;47.312;11.060;2023-06-10T00:13:00;7.20;;;6.50;;
10902;SDS011;5504;47.312;11.060;2023-06-10T00:15:30;6.60;;;6.00;;
10902;SDS011;5504;47.312;11.060;2023-06-10T00:17:55;6.50;;;5.80;;
10902;SDS011;5504;47.312;11.060;2023-06-10T00:20:21;6.77;;;6.17;;
10902;SDS011;5504;47.312;11.060;2023-06-10T00:22:51;6.83;;;6.23;;
10902;SDS011;5504;47.312;11.060;2023-06-10T00:25:17;6.43;;;5.83;;
10902;SDS011;5504;47.312;11.060;2023-06-10T00:27:43;6.70;;;6.10;;
10902;SDS011;5504;47.312;11.060;2023-06-10T00:30:09;6.77;;;6.17;;
10902;SDS011;5504;47.312;11.060;2023-06-10T00:32:36;6.87;;;5.77;;
10902;SDS011;5504;47.312;11.060;2023-06-10T00:35:03;8.07;;;6.40;;
10902;SDS011;5504;47.312;11.060;2023-06-10T00:37:29;6.40;;;5.80;;
10902;SDS011;5504;47.312;11.060;2023-06-10T00:39:55;6.23;;;5.73;;
10902;SDS011;5504;47.312;11.060;2023-06-10T00:42:21;6.70;;;6.10;;
10902;SDS011;5504;47.312;11.060;2023-06-10T00:44:49;6.97;;;6.37;;
10902;SDS011;5504;47.312;11.060;2023-06-10T00:47:15;6.83;;;6.10;;
10902;SDS011;5504;47.312;11.060;2023-06-10T00:49:41;6.53;;;5.93;;
10902;SDS011;5504;47.312;11.060;2023-06-10T00:52:07;7.00;;;6.40;;
10902;SDS011;5504;47.312;11.060;2023-06-10T00:54:35;6.80;;;6.20;;
10902;SDS011;5504;47.312;11.060;2023-06-10T00:57:02;6.87;;;6.27;;
10902;SDS011;5504;47.312;11.060;2023-06-10T00:59:31;6.40;;;5.80;;
10902;SDS011;5504;47.312;11.060;2023-06-10T01:01:57;6.53;;;5.93;;
10902;SDS011;5504;47.312;11.060;2023-06-10T01:04:23;7.27;;;6.57;;
10902;SDS011;5504;47.312;11.060;2023-06-10T01:12:17;7.00;;;6.30;;
10902;SDS011;5504;47.312;11.060;2023-06-10T01:14:51;6.63;;;6.03;;
10902;SDS011;5504;47.312;11.060;2023-06-10T01:17:17;6.83;;;6.07;;
10902;SDS011;5504;47.312;11.060;2023-06-10T01:19:44;7.17;;;5.93;;
10902;SDS011;5504;47.312;11.060;2023-06-10T01:22:18;7.23;;;6.20;;
10902;SDS011;5504;47.312;11.060;2023-06-10T01:24:43;7.03;;;6.43;;
10902;SDS011;5504;47.312;11.060;2023-06-10T01:27:11;6.77;;;6.17;;
10902;SDS011;5504;47.312;11.060;2023-06-10T01:29:48;7.17;;;6.43;;
10902;SDS011;5504;47.312;11.060;2023-06-10T01:32:40;7.43;;;6.73;;
10902;SDS011;5504;47.312;11.060;2023-06-10T01:35:09;7.03;;;6.33;;
10902;SDS011;5504;47.312;11.060;2023-06-10T01:37:36;7.80;;;7.10;;
10902;SDS011;5504;47.312;11.060;2023-06-10T01:40:04;7.07;;;6.37;;
10902;SDS011;5504;47.312;11.060;2023-06-10T01:42:31;6.50;;;5.90;;
10902;SDS011;5504;47.312;11.060;2023-06-10T01:44:58;7.33;;;6.63;;
10902;SDS011;5504;47.312;11.060;2023-06-10T01:47:24;6.37;;;5.80;;
10902;SDS011;5504;47.312;11.060;2023-06-10T01:49:49;7.07;;;6.43;;
10902;SDS011;5504;47.312;11.060;2023-06-10T01:52:15;6.97;;;6.27;;
10902;SDS011;5504;47.312;11.060;2023-06-10T01:54:41;6.70;;;6.10;;
10902;SDS011;5504;47.312;11.060;2023-06-10T01:57:07;7.13;;;6.43;;
10902;SDS011;5504;47.312;11.060;2023-06-10T01:59:32;7.13;;;6.43;;
10902;SDS011;5504;47.312;11.060;2023-06-10T02:01:58;7.13;;;6.43;;
10902;SDS011;5504;47.312;11.060;2023-06-10T02:04:24;6.93;;;6.33;;
10902;SDS011;5504;47.312;11.060;2023-06-10T02:06:49;7.30;;;6.60;;
10902;SDS011;5504;47.312;11.060;2023-06-10T02:09:15;6.70;;;6.10;;
10902;SDS011;5504;47.312;11.060;2023-06-10T02:11:43;7.30;;;6.60;;
10902;SDS011;5504;47.312;11.060;2023-06-10T02:14:09;6.97;;;6.37;;
10902;SDS011;5504;47.312;11.060;2023-06-10T02:16:34;7.50;;;6.80;;
10902;SDS011;5504;47.312;11.060;2023-06-10T02:19:00;7.17;;;6.47;;
10902;SDS011;5504;47.312;11.060;2023-06-10T02:21:26;7.13;;;6.43;;
10902;SDS011;5504;47.312;11.060;2023-06-10T02:23:51;7.00;;;6.40;;
10902;SDS011;5504;47.312;11.060;2023-06-10T02:26:17;7.53;;;6.83;;
10902;SDS011;5504;47.312;11.060;2023-06-10T02:28:43;7.47;;;6.77;;
10902;SDS011;5504;47.312;11.060;2023-06-10T02:31:09;8.03;;;7.23;;
10902;SDS011;5504;47.312;11.060;2023-06-10T02:33:34;7.70;;;7.00;;
10902;SDS011;5504;47.312;11.060;2023-06-10T02:36:00;7.83;;;7.03;;
10902;SDS011;5504;47.312;11.060;2023-06-10T02:38:26;7.13;;;6.53;;
10902;SDS011;5504;47.312;11.060;2023-06-10T02:40:52;7.30;;;6.60;;
10902;SDS011;5504;47.312;11.060;2023-06-10T02:43:17;7.20;;;6.50;;
10902;SDS011;5504;47.312;11.060;2023-06-10T02:45:43;7.10;;;6.40;;
10902;SDS011;5504;47.312;11.060;2023-06-10T02:48:09;7.30;;;6.70;;
10902;SDS011;5504;47.312;11.060;2023-06-10T02:50:35;7.60;;;6.90;;
10902;SDS011;5504;47.312;11.060;2023-06-10T02:53:00;7.40;;;6.70;;
10902;SDS011;5504;47.312;11.060;2023-06-10T02:55:26;7.37;;;6.67;;
10902;SDS011;5504;47.312;11.060;2023-06-10T02:57:52;7.57;;;6.87;;
10902;SDS011;5504;47.312;11.060;2023-06-10T03:00:19;7.33;;;6.73;;
10902;SDS011;5504;47.312;11.060;2023-06-10T03:02:46;7.67;;;6.97;;
10902;SDS011;5504;47.312;11.060;2023-06-10T03:05:12;8.20;;;7.40;;
10902;SDS011;5504;47.312;11.060;2023-06-10T03:07:38;7.93;;;7.17;;
10902;SDS011;5504;47.312;11.060;2023-06-10T03:10:05;7.77;;;6.97;;
10902;SDS011;5504;47.312;11.060;2023-06-10T03:12:31;8.83;;;7.10;;
10902;SDS011;5504;47.312;11.060;2023-06-10T03:14:57;7.50;;;6.90;;
10902;SDS011;5504;47.312;11.060;2023-06-10T03:17:23;8.63;;;6.80;;
10902;SDS011;5504;47.312;11.060;2023-06-10T03:19:49;7.87;;;7.10;;
10902;SDS011;5504;47.312;11.060;2023-06-10T03:22:16;7.30;;;6.60;;
10902;SDS011;5504;47.312;11.060;2023-06-10T03:24:42;7.60;;;6.90;;
10902;SDS011;5504;47.312;11.060;2023-06-10T03:27:11;8.00;;;7.20;;
10902;SDS011;5504;47.312;11.060;2023-06-10T03:29:39;7.70;;;7.00;;
10902;SDS011;5504;47.312;11.060;2023-06-10T03:32:05;7.90;;;7.20;;
10902;SDS011;5504;47.312;11.060;2023-06-10T03:34:31;7.70;;;6.93;;
10902;SDS011;5504;47.312;11.060;2023-06-10T03:36:57;6.70;;;6.10;;
10902;SDS011;5504;47.312;11.060;2023-06-10T03:39:23;8.00;;;7.10;;
10902;SDS011;5504;47.312;11.060;2023-06-10T03:41:49;7.63;;;6.93;;
10902;SDS011;5504;47.312;11.060;2023-06-10T03:44:15;8.60;;;7.70;;
10902;SDS011;5504;47.312;11.060;2023-06-10T03:46:41;7.63;;;6.93;;
10902;SDS011;5504;47.312;11.060;2023-06-10T03:49:06;8.30;;;7.60;;
10902;SDS011;5504;47.312;11.060;2023-06-10T03:51:32;8.47;;;7.57;;
10902;SDS011;5504;47.312;11.060;2023-06-10T03:53:58;8.17;;;7.47;;
10902;SDS011;5504;47.312;11.060;2023-06-10T03:56:24;8.67;;;7.87;;
10902;SDS011;5504;47.312;11.060;2023-06-10T03:58:50;8.17;;;7.37;;
10902;SDS011;5504;47.312;11.060;2023-06-10T04:01:16;8.67;;;7.87;;
10902;SDS011;5504;47.312;11.060;2023-06-10T04:03:46;8.73;;;7.83;;
10902;SDS011;5504;47.312;11.060;2023-06-10T04:06:14;8.20;;;7.50;;
10902;SDS011;5504;47.312;11.060;2023-06-10T04:08:41;7.90;;;7.20;;
10902;SDS011;5504;47.312;11.060;2023-06-10T04:11:08;7.60;;;6.90;;
10902;SDS011;5504;47.312;11.060;2023-06-10T04:13:33;7.80;;;7.10;;
10902;SDS011;5504;47.312;11.060;2023-06-10T04:15:59;8.23;;;7.43;;
10902;SDS011;5504;47.312;11.060;2023-06-10T04:18:25;8.47;;;7.67;;
10902;SDS011;5504;47.312;11.060;2023-06-10T04:20:51;8.33;;;7.53;;
10902;SDS011;5504;47.312;11.060;2023-06-10T04:23:17;8.23;;;7.43;;
10902;SDS011;5504;47.312;11.060;2023-06-10T04:25:43;8.20;;;7.50;;
10902;SDS011;5504;47.312;11.060;2023-06-10T04:28:08;8.00;;;7.30;;
10902;SDS011;5504;47.312;11.060;2023-06-10T04:30:34;8.20;;;7.50;;
10902;SDS011;5504;47.312;11.060;2023-06-10T04:33:00;7.77;;;7.03;;
10902;SDS011;5504;47.312;11.060;2023-06-10T04:35:26;8.57;;;7.77;;
10902;SDS011;5504;47.312;11.060;2023-06-10T04:37:52;7.90;;;7.20;;
10902;SDS011;5504;47.312;11.060;2023-06-10T04:40:19;7.83;;;7.13;;
10902;SDS011;5504;47.312;11.060;2023-06-10T04:42:44;7.80;;;7.10;;
10902;SDS011;5504;47.312;11.060;2023-06-10T04:45:10;8.90;;;8.00;;
10902;SDS011;5504;47.312;11.060;2023-06-10T04:47:36;7.90;;;7.10;;
10902;SDS011;5504;47.312;11.060;2023-06-10T04:50:03;8.53;;;7.73;;
10902;SDS011;5504;47.312;11.060;2023-06-10T04:52:30;8.40;;;7.60;;
10902;SDS011;5504;47.312;11.060;2023-06-10T04:54:57;8.17;;;7.47;;
10902;SDS011;5504;47.312;11.060;2023-06-10T04:57:23;8.30;;;7.50;;
10902;SDS011;5504;47.312;11.060;2023-06-10T04:59:49;8.73;;;7.93;;
10902;SDS011;5504;47.312;11.060;2023-06-10T05:02:15;8.30;;;7.50;;
10902;SDS011;5504;47.312;11.060;2023-06-10T05:04:40;8.43;;;7.63;;
10902;SDS011;5504;47.312;11.060;2023-06-10T05:07:06;9.27;;;8.27;;
10902;SDS011;5504;47.312;11.060;2023-06-10T05:09:32;9.57;;;8.20;;
10902;SDS011;5504;47.312;11.060;2023-06-10T05:11:58;8.37;;;7.57;;
10902;SDS011;5504;47.312;11.060;2023-06-10T05:14:24;9.60;;;8.70;;
10902;SDS011;5504;47.312;11.060;2023-06-10T05:16:49;9.30;;;8.40;;
10902;SDS011;5504;47.312;11.060;2023-06-10T05:19:15;9.20;;;8.30;;
10902;SDS011;5504;47.312;11.060;2023-06-10T05:21:41;9.80;;;8.80;;
10902;SDS011;5504;47.312;11.060;2023-06-10T05:24:07;9.50;;;8.60;;
10902;SDS011;5504;47.312;11.060;2023-06-10T05:26:33;9.27;;;8.37;;
10902;SDS011;5504;47.312;11.060;2023-06-10T05:29:02;9.17;;;8.30;;
10902;SDS011;5504;47.312;11.060;2023-06-10T05:31:29;9.37;;;8.47;;
10902;SDS011;5504;47.312;11.060;2023-06-10T05:33:54;9.57;;;8.77;;
10902;SDS011;5504;47.312;11.060;2023-06-10T05:36:20;9.77;;;8.83;;
10902;SDS011;5504;47.312;11.060;2023-06-10T05:38:46;9.27;;;8.47;;
10902;SDS011;5504;47.312;11.060;2023-06-10T05:41:12;9.03;;;8.23;;
10902;SDS011;5504;47.312;11.060;2023-06-10T05:43:37;8.97;;;8.10;;
10902;SDS011;5504;47.312;11.060;2023-06-10T05:46:03;8.80;;;8.00;;
10902;SDS011;5504;47.312;11.060;2023-06-10T05:48:29;8.50;;;7.80;;
10902;SDS011;5504;47.312;11.060;2023-06-10T05:50:55;9.17;;;8.30;;
10902;SDS011;5504;47.312;11.060;2023-06-10T05:53:20;8.53;;;7.73;;
10902;SDS011;5504;47.312;11.060;2023-06-10T05:55:46;8.33;;;7.53;;
10902;SDS011;5504;47.312;11.060;2023-06-10T05:58:13;8.85;;;8.05;;
10902;SDS011;5504;47.312;11.060;2023-06-10T06:00:39;8.32;;;7.63;;
10902;SDS011;5504;47.312;11.060;2023-06-10T06:03:06;9.20;;;7.80;;
10902;SDS011;5504;47.312;11.060;2023-06-10T06:05:36;8.00;;;7.22;;
10902;SDS011;5504;47.312;11.060;2023-06-10T06:08:06;8.77;;;8.00;;
10902;SDS011;5504;47.312;11.060;2023-06-10T06:10:35;9.15;;;8.35;;
10902;SDS011;5504;47.312;11.060;2023-06-10T06:13:01;9.20;;;7.95;;
10902;SDS011;5504;47.312;11.060;2023-06-10T06:15:27;8.38;;;7.57;;
10902;SDS011;5504;47.312;11.060;2023-06-10T06:17:53;8.43;;;7.72;;
10902;SDS011;5504;47.312;11.060;2023-06-10T06:20:19;8.65;;;7.85;;
10902;SDS011;5504;47.312;11.060;2023-06-10T06:22:45;8.75;;;7.93;;
10902;SDS011;5504;47.312;11.060;2023-06-10T06:25:11;8.57;;;7.78;;
10902;SDS011;5504;47.312;11.060;2023-06-10T06:27:37;8.30;;;7.60;;
10902;SDS011;5504;47.312;11.060;2023-06-10T06:30:02;8.00;;;7.30;;
10902;SDS011;5504;47.312;11.060;2023-06-10T06:32:29;7.93;;;7.22;;
10902;SDS011;5504;47.312;11.060;2023-06-10T06:34:54;7.53;;;6.88;;
10902;SDS011;5504;47.312;11.060;2023-06-10T06:37:23;8.68;;;7.90;;
10902;SDS011;5504;47.312;11.060;2023-06-10T06:39:50;7.93;;;7.22;;
10902;SDS011;5504;47.312;11.060;2023-06-10T06:42:16;8.30;;;7.22;;
10902;SDS011;5504;47.312;11.060;2023-06-10T06:44:42;7.82;;;7.10;;
10902;SDS011;5504;47.312;11.060;2023-06-10T06:47:08;8.65;;;7.90;;
10902;SDS011;5504;47.312;11.060;2023-06-10T06:49:34;8.45;;;7.65;;
10902;SDS011;5504;47.312;11.060;2023-06-10T06:51:59;8.43;;;7.65;;
10902;SDS011;5504;47.312;11.060;2023-06-10T06:54:25;8.50;;;7.70;;
10902;SDS011;5504;47.312;11.060;2023-06-10T06:56:51;7.47;;;6.78;;
10902;SDS011;5504;47.312;11.060;2023-06-10T06:59:16;8.00;;;7.30;;
10902;SDS011;5504;47.312;11.060;2023-06-10T07:01:44;8.45;;;7.65;;
10902;SDS011;5504;47.312;11.060;2023-06-10T07:04:10;7.82;;;7.15;;
10902;SDS011;5504;47.312;11.060;2023-06-10T07:06:36;7.80;;;6.95;;
10902;SDS011;5504;47.312;11.060;2023-06-10T07:09:03;11.32;;;7.82;;
10902;SDS011;5504;47.312;11.060;2023-06-10T07:11:29;7.80;;;7.00;;
10902;SDS011;5504;47.312;11.060;2023-06-10T07:13:55;7.13;;;6.53;;
10902;SDS011;5504;47.312;11.060;2023-06-10T07:16:21;7.45;;;6.75;;
10902;SDS011;5504;47.312;11.060;2023-06-10T07:18:47;8.82;;;7.40;;
10902;SDS011;5504;47.312;11.060;2023-06-10T07:21:13;7.38;;;6.68;;
10902;SDS011;5504;47.312;11.060;2023-06-10T07:23:42;8.13;;;7.07;;
10902;SDS011;5504;47.312;11.060;2023-06-10T07:26:08;7.72;;;7.13;;
10902;SDS011;5504;47.312;11.060;2023-06-10T07:28:36;7.68;;;6.97;;
10902;SDS011;5504;47.312;11.060;2023-06-10T07:31:02;7.95;;;7.25;;
10902;SDS011;5504;47.312;11.060;2023-06-10T07:33:28;7.32;;;6.72;;
10902;SDS011;5504;47.312;11.060;2023-06-10T07:35:54;7.50;;;6.85;;
10902;SDS011;5504;47.312;11.060;2023-06-10T07:38:20;7.55;;;6.88;;
10902;SDS011;5504;47.312;11.060;2023-06-10T07:40:45;7.55;;;6.78;;
10902;SDS011;5504;47.312;11.060;2023-06-10T07:43:11;7.00;;;6.40;;
10902;SDS011;5504;47.312;11.060;2023-06-10T07:45:39;7.40;;;6.68;;
10902;SDS011;5504;47.312;11.060;2023-06-10T07:48:06;7.03;;;6.43;;
10902;SDS011;5504;47.312;11.060;2023-06-10T07:50:32;6.95;;;6.35;;
10902;SDS011;5504;47.312;11.060;2023-06-10T07:52:57;6.40;;;5.90;;
10902;SDS011;5504;47.312;11.060;2023-06-10T07:55:23;6.63;;;6.03;;
10902;SDS011;5504;47.312;11.060;2023-06-10T07:57:51;6.68;;;6.15;;
10902;SDS011;5504;47.312;11.060;2023-06-10T08:00:17;6.40;;;5.80;;
10902;SDS011;5504;47.312;11.060;2023-06-10T08:02:43;6.53;;;6.03;;
10902;SDS011;5504;47.312;11.060;2023-06-10T08:05:09;6.22;;;5.63;;
10902;SDS011;5504;47.312;11.060;2023-06-10T08:07:35;6.30;;;5.70;;
10902;SDS011;5504;47.312;11.060;2023-06-10T08:10:01;6.95;;;6.25;;
10902;SDS011;5504;47.312;11.060;2023-06-10T08:12:27;5.95;;;5.53;;
10902;SDS011;5504;47.312;11.060;2023-06-10T08:14:53;6.45;;;5.90;;
10902;SDS011;5504;47.312;11.060;2023-06-10T08:17:20;5.97;;;5.53;;
10902;SDS011;5504;47.312;11.060;2023-06-10T08:19:45;6.80;;;6.20;;
10902;SDS011;5504;47.312;11.060;2023-06-10T08:22:11;6.15;;;5.60;;
10902;SDS011;5504;47.312;11.060;2023-06-10T08:24:37;5.90;;;5.40;;
10902;SDS011;5504;47.312;11.060;2023-06-10T08:27:03;6.32;;;5.72;;
10902;SDS011;5504;47.312;11.060;2023-06-10T08:29:29;6.18;;;5.57;;
10902;SDS011;5504;47.312;11.060;2023-06-10T08:31:56;5.88;;;5.32;;
10902;SDS011;5504;47.312;11.060;2023-06-10T08:34:22;5.47;;;5.07;;
10902;SDS011;5504;47.312;11.060;2023-06-10T08:36:48;5.70;;;5.20;;
10902;SDS011;5504;47.312;11.060;2023-06-10T08:39:18;5.88;;;5.10;;
10902;SDS011;5504;47.312;11.060;2023-06-10T08:41:47;5.88;;;5.28;;
10902;SDS011;5504;47.312;11.060;2023-06-10T08:44:35;5.40;;;5.00;;
10902;SDS011;5504;47.312;11.060;2023-06-10T08:47:06;6.20;;;5.70;;
10902;SDS011;5504;47.312;11.060;2023-06-10T08:49:37;5.53;;;5.03;;
10902;SDS011;5504;47.312;11.060;2023-06-10T08:52:06;5.70;;;5.20;;
10902;SDS011;5504;47.312;11.060;2023-06-10T08:54:33;6.10;;;5.50;;
10902;SDS011;5504;47.312;11.060;2023-06-10T08:57:03;6.70;;;5.50;;
10902;SDS011;5504;47.312;11.060;2023-06-10T08:59:31;5.80;;;5.32;;
10902;SDS011;5504;47.312;11.060;2023-06-10T09:01:57;5.68;;;5.28;;
10902;SDS011;5504;47.312;11.060;2023-06-10T09:04:23;5.60;;;5.15;;
10902;SDS011;5504;47.312;11.060;2023-06-10T09:06:49;6.63;;;5.05;;
10902;SDS011;5504;47.312;11.060;2023-06-10T09:09:17;5.43;;;4.93;;
10902;SDS011;5504;47.312;11.060;2023-06-10T09:11:45;5.60;;;5.10;;
10902;SDS011;5504;47.312;11.060;2023-06-10T09:14:11;5.20;;;4.80;;
10902;SDS011;5504;47.312;11.060;2023-06-10T09:16:41;5.90;;;5.40;;
10902;SDS011;5504;47.312;11.060;2023-06-10T09:19:07;5.40;;;4.90;;
10902;SDS011;5504;47.312;11.060;2023-06-10T09:21:34;5.13;;;4.72;;
10902;SDS011;5504;47.312;11.060;2023-06-10T09:24:03;5.32;;;4.80;;
10902;SDS011;5504;47.312;11.060;2023-06-10T09:26:30;5.40;;;4.90;;
10902;SDS011;5504;47.312;11.060;2023-06-10T09:29:05;5.57;;;5.07;;
10902;SDS011;5504;47.312;11.060;2023-06-10T09:31:36;5.43;;;5.03;;
10902;SDS011;5504;47.312;11.060;2023-06-10T09:36:33;5.45;;;5.05;;
10902;SDS011;5504;47.312;11.060;2023-06-10T09:39:00;5.13;;;4.72;;
10902;SDS011;5504;47.312;11.060;2023-06-10T09:41:33;5.50;;;5.03;;
10902;SDS011;5504;47.312;11.060;2023-06-10T09:44:00;5.15;;;4.65;;
10902;SDS011;5504;47.312;11.060;2023-06-10T09:46:30;5.60;;;5.20;;
10902;SDS011;5504;47.312;11.060;2023-06-10T09:48:59;5.53;;;5.03;;
10902;SDS011;5504;47.312;11.060;2023-06-10T09:51:25;6.22;;;5.63;;
10902;SDS011;5504;47.312;11.060;2023-06-10T09:53:51;5.55;;;5.05;;
10902;SDS011;5504;47.312;11.060;2023-06-10T09:56:18;5.60;;;5.10;;
10902;SDS011;5504;47.312;11.060;2023-06-10T09:58:45;5.40;;;4.90;;
10902;SDS011;5504;47.312;11.060;2023-06-10T10:01:12;5.47;;;4.97;;
10902;SDS011;5504;47.312;11.060;2023-06-10T10:03:46;6.57;;;5.10;;
10902;SDS011;5504;47.312;11.060;2023-06-10T10:06:14;5.32;;;4.82;;
10902;SDS011;5504;47.312;11.060;2023-06-10T10:08:40;5.57;;;4.80;;
10902;SDS011;5504;47.312;11.060;2023-06-10T10:11:06;8.80;;;5.38;;
10902;SDS011;5504;47.312;11.060;2023-06-10T10:13:33;6.30;;;4.68;;
10902;SDS011;5504;47.312;11.060;2023-06-10T10:16:01;5.20;;;4.55;;
10902;SDS011;5504;47.312;11.060;2023-06-10T10:18:31;5.07;;;4.68;;
10902;SDS011;5504;47.312;11.060;2023-06-10T10:21:00;4.88;;;4.47;;
10902;SDS011;5504;47.312;11.060;2023-06-10T10:23:31;5.00;;;4.57;;
10902;SDS011;5504;47.312;11.060;2023-06-10T10:26:04;4.57;;;4.03;;
10902;SDS011;5504;47.312;11.060;2023-06-10T10:28:37;4.75;;;4.35;;
10902;SDS011;5504;47.312;11.060;2023-06-10T10:31:10;7.38;;;5.18;;
10902;SDS011;5504;47.312;11.060;2023-06-10T10:36:18;5.47;;;4.97;;
10902;SDS011;5504;47.312;11.060;2023-06-10T10:38:44;7.55;;;5.75;;
10902;SDS011;5504;47.312;11.060;2023-06-10T10:41:12;5.68;;;4.90;;
10902;SDS011;5504;47.312;11.060;2023-06-10T10:43:39;6.68;;;5.30;;
10902;SDS011;5504;47.312;11.060;2023-06-10T10:46:09;9.32;;;6.25;;
10902;SDS011;5504;47.312;11.060;2023-06-10T10:48:37;4.95;;;4.53;;
10902;SDS011;5504;47.312;11.060;2023-06-10T10:51:04;4.80;;;4.40;;
10902;SDS011;5504;47.312;11.060;2023-06-10T10:53:29;4.55;;;4.15;;
10902;SDS011;5504;47.312;11.060;2023-06-10T10:55:59;6.32;;;4.15;;
10902;SDS011;5504;47.312;11.060;2023-06-10T10:58:29;6.22;;;4.18;;
10902;SDS011;5504;47.312;11.060;2023-06-10T11:00:56;6.60;;;4.43;;
10902;SDS011;5504;47.312;11.060;2023-06-10T11:03:22;4.93;;;4.53;;
10902;SDS011;5504;47.312;11.060;2023-06-10T11:05:52;4.40;;;4.00;;
10902;SDS011;5504;47.312;11.060;2023-06-10T11:10:54;4.50;;;4.18;;
10902;SDS011;5504;47.312;11.060;2023-06-10T11:13:20;4.40;;;4.10;;
10902;SDS011;5504;47.312;11.060;2023-06-10T11:15:48;4.57;;;4.18;;
10902;SDS011;5504;47.312;11.060;2023-06-10T11:18:24;6.38;;;4.50;;
10902;SDS011;5504;47.312;11.060;2023-06-10T11:20:52;4.78;;;4.38;;
10902;SDS011;5504;47.312;11.060;2023-06-10T11:26:13;4.45;;;4.15;;
10902;SDS011;5504;47.312;11.060;2023-06-10T11:28:40;4.50;;;3.85;;
10902;SDS011;5504;47.312;11.060;2023-06-10T11:31:07;4.60;;;4.13;;
10902;SDS011;5504;47.312;11.060;2023-06-10T11:33:34;4.15;;;3.85;;
10902;SDS011;5504;47.312;11.060;2023-06-10T11:36:06;4.30;;;4.00;;
10902;SDS011;5504;47.312;11.060;2023-06-10T11:38:32;4.78;;;4.13;;
10902;SDS011;5504;47.312;11.060;2023-06-10T11:40:58;5.32;;;4.20;;
10902;SDS011;5504;47.312;11.060;2023-06-10T11:43:24;4.18;;;3.88;;
10902;SDS011;5504;47.312;11.060;2023-06-10T11:45:53;4.13;;;3.83;;
10902;SDS011;5504;47.312;11.060;2023-06-10T11:48:21;4.63;;;4.13;;
10902;SDS011;5504;47.312;11.060;2023-06-10T11:50:46;4.13;;;3.83;;
10902;SDS011;5504;47.312;11.060;2023-06-10T11:53:12;3.95;;;3.60;;
10902;SDS011;5504;47.312;11.060;2023-06-10T11:58:18;4.18;;;3.88;;
10902;SDS011;5504;47.312;11.060;2023-06-10T12:00:51;4.22;;;3.83;;
10902;SDS011;5504;47.312;11.060;2023-06-10T12:03:19;3.88;;;3.58;;
10902;SDS011;5504;47.312;11.060;2023-06-10T12:05:59;4.07;;;3.72;;
10902;SDS011;5504;47.312;11.060;2023-06-10T12:08:27;3.90;;;3.47;;
10902;SDS011;5504;47.312;11.060;2023-06-10T12:10:53;4.05;;;3.75;;
10902;SDS011;5504;47.312;11.060;2023-06-10T12:13:20;4.72;;;4.22;;
10902;SDS011;5504;47.312;11.060;2023-06-10T12:15:46;4.50;;;4.10;;
10902;SDS011;5504;47.312;11.060;2023-06-10T12:18:16;4.63;;;4.22;;
10902;SDS011;5504;47.312;11.060;2023-06-10T12:20:42;4.60;;;4.20;;
10902;SDS011;5504;47.312;11.060;2023-06-10T12:23:12;4.57;;;4.18;;
10902;SDS011;5504;47.312;11.060;2023-06-10T12:25:38;5.47;;;3.97;;
10902;SDS011;5504;47.312;11.060;2023-06-10T12:28:04;4.63;;;4.20;;
10902;SDS011;5504;47.312;11.060;2023-06-10T12:30:30;4.38;;;3.97;;
10902;SDS011;5504;47.312;11.060;2023-06-10T12:32:56;4.47;;;4.15;;
10902;SDS011;5504;47.312;11.060;2023-06-10T12:35:23;4.15;;;3.85;;
10902;SDS011;5504;47.312;11.060;2023-06-10T12:37:57;4.07;;;3.67;;
10902;SDS011;5504;47.312;11.060;2023-06-10T12:40:26;4.35;;;3.97;;
10902;SDS011;5504;47.312;11.060;2023-06-10T12:42:54;4.78;;;4.18;;
10902;SDS011;5504;47.312;11.060;2023-06-10T12:45:30;4.63;;;3.92;;
10902;SDS011;5504;47.312;11.060;2023-06-10T12:48:07;4.20;;;3.90;;
10902;SDS011;5504;47.312;11.060;2023-06-10T12:50:51;5.00;;;4.50;;
10902;SDS011;5504;47.312;11.060;2023-06-10T12:53:18;5.00;;;4.47;;
10902;SDS011;5504;47.312;11.060;2023-06-10T12:55:45;5.03;;;4.63;;
10902;SDS011;5504;47.312;11.060;2023-06-10T12:58:11;5.32;;;4.88;;
10902;SDS011;5504;47.312;11.060;2023-06-10T13:00:37;5.10;;;4.70;;
10902;SDS011;5504;47.312;11.060;2023-06-10T13:03:03;4.82;;;4.43;;
10902;SDS011;5504;47.312;11.060;2023-06-10T13:05:30;6.00;;;5.00;;
10902;SDS011;5504;47.312;11.060;2023-06-10T13:07:56;5.80;;;5.30;;
10902;SDS011;5504;47.312;11.060;2023-06-10T13:10:23;5.53;;;5.03;;
10902;SDS011;5504;47.312;11.060;2023-06-10T13:12:50;5.90;;;5.28;;
10902;SDS011;5504;47.312;11.060;2023-06-10T13:15:16;5.10;;;4.70;;
10902;SDS011;5504;47.312;11.060;2023-06-10T13:17:42;5.65;;;5.00;;
10902;SDS011;5504;47.312;11.060;2023-06-10T13:20:08;5.43;;;5.00;;
10902;SDS011;5504;47.312;11.060;2023-06-10T13:22:34;4.93;;;4.47;;
10902;SDS011;5504;47.312;11.060;2023-06-10T13:25:04;5.18;;;4.68;;
10902;SDS011;5504;47.312;11.060;2023-06-10T13:27:32;5.97;;;4.55;;
10902;SDS011;5504;47.312;11.060;2023-06-10T13:29:59;5.70;;;4.63;;
10902;SDS011;5504;47.312;11.060;2023-06-10T13:32:25;5.00;;;4.60;;
10902;SDS011;5504;47.312;11.060;2023-06-10T13:34:50;5.00;;;4.60;;
10902;SDS011;5504;47.312;11.060;2023-06-10T13:37:18;4.93;;;4.47;;
10902;SDS011;5504;47.312;11.060;2023-06-10T13:39:44;5.53;;;4.82;;
10902;SDS011;5504;47.312;11.060;2023-06-10T13:42:15;5.20;;;4.75;;
10902;SDS011;5504;47.312;11.060;2023-06-10T13:44:40;5.18;;;4.72;;
10902;SDS011;5504;47.312;11.060;2023-06-10T13:47:06;5.05;;;4.63;;
10902;SDS011;5504;47.312;11.060;2023-06-10T13:49:32;5.00;;;4.60;;
10902;SDS011;5504;47.312;11.060;2023-06-10T13:51:57;5.30;;;4.80;;
10902;SDS011;5504;47.312;11.060;2023-06-10T13:54:23;5.20;;;4.80;;
10902;SDS011;5504;47.312;11.060;2023-06-10T13:56:49;5.18;;;4.78;;
10902;SDS011;5504;47.312;11.060;2023-06-10T13:59:14;6.45;;;5.32;;
10902;SDS011;5504;47.312;11.060;2023-06-10T14:01:40;5.45;;;4.97;;
10902;SDS011;5504;47.312;11.060;2023-06-10T14:04:07;5.85;;;5.35;;
10902;SDS011;5504;47.312;11.060;2023-06-10T14:06:33;5.95;;;5.45;;
10902;SDS011;5504;47.312;11.060;2023-06-10T14:08:59;6.00;;;5.50;;
10902;SDS011;5504;47.312;11.060;2023-06-10T14:11:25;6.22;;;5.63;;
10902;SDS011;5504;47.312;11.060;2023-06-10T14:13:51;5.63;;;5.10;;
10902;SDS011;5504;47.312;11.060;2023-06-10T14:16:17;6.15;;;5.18;;
10902;SDS011;5504;47.312;11.060;2023-06-10T14:18:42;5.32;;;4.93;;
10902;SDS011;5504;47.312;11.060;2023-06-10T14:21:08;5.68;;;5.18;;
10902;SDS011;5504;47.312;11.060;2023-06-10T14:23:34;5.50;;;5.10;;
10902;SDS011;5504;47.312;11.060;2023-06-10T14:26:00;5.88;;;5.28;;
10902;SDS011;5504;47.312;11.060;2023-06-10T14:28:27;5.93;;;5.43;;
10902;SDS011;5504;47.312;11.060;2023-06-10T14:30:54;5.82;;;5.22;;
10902;SDS011;5504;47.312;11.060;2023-06-10T14:33:19;5.18;;;4.78;;
10902;SDS011;5504;47.312;11.060;2023-06-10T14:35:45;5.88;;;5.32;;
10902;SDS011;5504;47.312;11.060;2023-06-10T14:38:11;6.25;;;5.53;;
10902;SDS011;5504;47.312;11.060;2023-06-10T14:40:37;5.63;;;5.07;;
10902;SDS011;5504;47.312;11.060;2023-06-10T14:43:02;6.53;;;5.45;;
10902;SDS011;5504;47.312;11.060;2023-06-10T14:45:34;7.80;;;5.38;;
10902;SDS011;5504;47.312;11.060;2023-06-10T14:48:04;10.40;;;5.78;;
10902;SDS011;5504;47.312;11.060;2023-06-10T14:50:30;5.80;;;5.30;;
10902;SDS011;5504;47.312;11.060;2023-06-10T14:52:57;5.57;;;5.00;;
10902;SDS011;5504;47.312;11.060;2023-06-10T14:55:23;5.90;;;5.38;;
10902;SDS011;5504;47.312;11.060;2023-06-10T14:57:49;5.63;;;5.13;;
10902;SDS011;5504;47.312;11.060;2023-06-10T15:00:15;5.50;;;5.00;;
10902;SDS011;5504;47.312;11.060;2023-06-10T15:02:45;5.13;;;4.63;;
10902;SDS011;5504;47.312;11.060;2023-06-10T15:05:13;5.30;;;4.90;;